Time;durP1;ratioP1;P1;durP2;ratioP2;P2;SDS_P1;SDS_P2;PMS_P1;PMS_P2;Temp;Humidity;BMP_temperature;BMP_pressure;BME280_temperature;BME280_humidity;BME280_pressure;Samples;Min_cycle;Max_cycle;Signal;HPM_P1;HPM_P2
2023/04/23 00:04:51;;;;;;;5.90;4.00;;;;;;;13.51;64.07;99132.72;10475046;28;20048;-59
2023/04/23 00:09:56;;;;;;;5.05;3.40;;;;;;;13.43;64.15;99132.53;10473418;28;20052;-59
2023/04/23 00:14:59;;;;;;;4.82;3.45;;;;;;;13.31;64.13;99136.97;10473010;28;20428;-59
2023/04/23 00:20:01;;;;;;;5.20;3.13;;;;;;;13.22;63.86;99135.13;10458579;28;20530;-60
2023/04/23 00:25:03;;;;;;;5.43;3.80;;;;;;;13.19;63.68;99139.81;10473775;28;20530;-59
2023/04/23 00:30:05;;;;;;;6.00;3.50;;;;;;;13.16;63.90;99146.13;10472795;28;20401;-59
2023/04/23 00:35:07;;;;;;;5.40;3.72;;;;;;;13.02;64.60;99150.84;10436896;28;20052;-62
2023/04/23 00:40:10;;;;;;;6.90;3.50;;;;;;;13.11;63.91;99143.03;10471135;28;20230;-60
2023/04/23 00:45:12;;;;;;;4.60;3.08;;;;;;;13.04;63.52;99148.94;10474337;28;20051;-61
2023/04/23 00:50:14;;;;;;;4.55;3.30;;;;;;;12.89;63.43;99143.97;10474404;28;20140;-60
2023/04/23 00:55:19;;;;;;;5.95;3.60;;;;;;;12.72;63.56;99136.63;10470393;28;20475;-60
2023/04/23 01:00:21;;;;;;;5.85;3.63;;;;;;;12.59;63.87;99146.47;10454604;28;20161;-60
2023/04/23 01:05:23;;;;;;;6.28;3.60;;;;;;;12.62;63.58;99148.03;10470754;28;20081;-60
2023/04/23 01:10:25;;;;;;;6.25;3.83;;;;;;;12.60;63.59;99149.94;10484805;28;20434;-60
2023/04/23 01:15:27;;;;;;;6.63;3.40;;;;;;;12.55;63.93;99154.69;10458618;28;20139;-61
2023/04/23 01:20:29;;;;;;;5.63;3.50;;;;;;;12.54;63.63;99146.00;10473830;28;20055;-60
2023/04/23 01:25:31;;;;;;;5.20;3.45;;;;;;;12.60;63.77;99156.00;10488024;28;20044;-61
2023/04/23 01:30:34;;;;;;;7.13;3.53;;;;;;;12.56;63.50;99157.19;10467259;28;20051;-60
2023/04/23 01:35:35;;;;;;;6.05;3.50;;;;;;;12.60;63.51;99155.19;10473805;28;20528;-60
2023/04/23 01:40:37;;;;;;;6.80;3.80;;;;;;;12.54;63.94;99148.63;10473107;28;20049;-60
2023/04/23 01:45:40;;;;;;;6.50;3.72;;;;;;;12.52;63.92;99163.66;10470039;28;20109;-60
2023/04/23 01:50:42;;;;;;;4.72;3.30;;;;;;;12.50;63.96;99168.19;10454595;28;20045;-60
2023/04/23 01:55:46;;;;;;;4.97;3.60;;;;;;;12.57;63.78;99173.78;10471545;28;20048;-60
2023/04/23 02:00:51;;;;;;;5.90;3.78;;;;;;;12.57;64.17;99174.63;10455149;28;20143;-60
2023/04/23 02:05:54;;;;;;;5.65;3.75;;;;;;;12.50;64.14;99170.81;10488390;28;20121;-60
2023/04/23 02:10:56;;;;;;;5.53;3.75;;;;;;;12.53;64.16;99177.59;10460105;28;20085;-60
2023/04/23 02:15:58;;;;;;;6.15;4.00;;;;;;;12.52;64.33;99174.13;10478535;28;20461;-60
2023/04/23 02:21:00;;;;;;;5.65;3.70;;;;;;;12.55;63.86;99154.69;10463572;28;20385;-60
2023/04/23 02:26:02;;;;;;;5.43;4.00;;;;;;;12.65;63.75;99164.34;10475689;28;20139;-60
2023/04/23 02:31:05;;;;;;;5.72;3.80;;;;;;;12.70;64.03;99170.03;10476781;28;20044;-60
2023/04/23 02:36:09;;;;;;;5.57;3.95;;;;;;;12.67;63.72;99159.81;10459019;28;20048;-60
2023/04/23 02:41:11;;;;;;;6.13;4.35;;;;;;;12.74;63.79;99165.41;10477081;28;20105;-60
2023/04/23 02:46:13;;;;;;;6.15;4.20;;;;;;;12.76;63.90;99171.34;10474823;28;20043;-60
2023/04/23 02:51:15;;;;;;;5.00;3.88;;;;;;;12.81;63.54;99175.25;10469366;28;20053;-60
2023/04/23 02:56:17;;;;;;;7.78;5.03;;;;;;;12.81;63.41;99177.03;10438437;28;20295;-60
2023/04/23 03:01:19;;;;;;;7.15;4.60;;;;;;;12.66;63.54;99179.09;10440843;28;20033;-60
2023/04/23 03:06:21;;;;;;;6.22;4.40;;;;;;;12.56;63.80;99183.44;10435033;28;20056;-60
2023/04/23 03:11:23;;;;;;;5.80;4.97;;;;;;;12.48;63.80;99185.81;10435587;28;20119;-60
2023/04/23 03:16:27;;;;;;;5.85;4.70;;;;;;;12.35;64.42;99190.38;10435405;28;20040;-60
2023/04/23 03:21:29;;;;;;;6.35;4.68;;;;;;;12.17;64.56;99196.19;10438808;28;20126;-60
2023/04/23 03:26:31;;;;;;;5.90;4.47;;;;;;;12.06;64.74;99191.78;10435933;28;20055;-59
2023/04/23 03:31:33;;;;;;;6.90;4.55;;;;;;;11.97;64.86;99195.94;10435086;28;20587;-60
2023/04/23 03:36:35;;;;;;;7.35;5.57;;;;;;;12.10;64.89;99195.84;10417299;28;20051;-60
2023/04/23 03:41:37;;;;;;;7.25;5.50;;;;;;;12.12;64.75;99196.53;10447298;28;20049;-60
2023/04/23 03:46:40;;;;;;;7.30;5.95;;;;;;;11.94;64.56;99185.72;10435933;28;20114;-60
2023/04/23 03:51:42;;;;;;;8.52;6.03;;;;;;;11.87;64.72;99187.13;10433997;28;20786;-60
2023/04/23 03:56:44;;;;;;;8.52;5.95;;;;;;;11.89;65.07;99187.00;10432785;28;20049;-60
2023/04/23 04:01:57;;;;;;;6.18;5.57;;;;;;;11.90;65.16;99193.91;10438615;28;20352;-60
2023/04/23 04:07:00;;;;;;;8.10;5.57;;;;;;;11.84;65.25;99191.75;10431131;28;20060;-60
2023/04/23 04:12:03;;;;;;;11.35;7.00;;;;;;;11.83;65.12;99196.16;10463798;28;20040;-60
2023/04/23 04:17:04;;;;;;;8.48;6.53;;;;;;;11.92;65.08;99199.88;10431892;28;20047;-60
2023/04/23 04:22:06;;;;;;;8.02;6.00;;;;;;;11.97;65.31;99206.41;10432092;28;20420;-60
2023/04/23 04:27:08;;;;;;;7.65;5.68;;;;;;;11.91;65.38;99200.81;10439264;28;20059;-60
2023/04/23 04:32:10;;;;;;;7.88;6.55;;;;;;;11.94;65.56;99200.59;10429027;28;20046;-60
2023/04/23 04:37:12;;;;;;;9.55;7.13;;;;;;;11.97;65.41;99195.09;10431601;28;20069;-60
2023/04/23 04:42:14;;;;;;;7.25;6.43;;;;;;;11.92;65.40;99199.88;10431188;28;20055;-61
2023/04/23 04:47:16;;;;;;;9.90;7.18;;;;;;;11.97;65.53;99200.34;10434064;28;20134;-61
2023/04/23 04:52:18;;;;;;;8.38;6.40;;;;;;;11.98;65.36;99188.91;10475966;28;20086;-61
2023/04/23 04:57:21;;;;;;;10.13;6.60;;;;;;;11.83;65.51;99182.22;10473353;28;20409;-60
2023/04/23 05:02:23;;;;;;;7.82;6.78;;;;;;;11.92;65.15;99176.28;10471417;28;20063;-60
2023/04/23 05:07:25;;;;;;;9.52;5.10;;;;;;;11.70;65.53;99177.09;10456193;28;20052;-60
2023/04/23 05:12:27;;;;;;;8.73;6.53;;;;;;;11.76;65.29;99187.13;10460143;28;20045;-62
2023/04/23 05:17:29;;;;;;;10.25;8.00;;;;;;;11.84;64.94;99189.16;10468729;28;20076;-62
2023/04/23 05:22:31;;;;;;;13.50;7.93;;;;;;;11.83;64.90;99190.09;10471177;28;20128;-61
2023/04/23 05:27:33;;;;;;;11.18;7.93;;;;;;;11.93;64.68;99191.88;10491351;28;20050;-59
2023/04/23 05:32:35;;;;;;;9.25;7.18;;;;;;;12.03;64.55;99197.25;10469964;28;20083;-61
2023/04/23 05:37:37;;;;;;;9.80;6.38;;;;;;;12.00;64.46;99213.22;10485103;28;20135;-61
2023/04/23 05:42:39;;;;;;;9.75;6.78;;;;;;;11.98;64.28;99217.75;10462104;28;20040;-61
2023/04/23 05:47:41;;;;;;;7.25;5.47;;;;;;;11.99;64.63;99235.13;10486724;28;20055;-61
2023/04/23 05:52:43;;;;;;;7.40;4.97;;;;;;;11.98;65.04;99233.47;10473845;28;20058;-61
2023/04/23 05:57:45;;;;;;;8.55;5.28;;;;;;;12.17;64.58;99218.00;10449379;28;20048;-61
2023/04/23 06:02:47;;;;;;;8.23;4.43;;;;;;;12.29;64.01;99206.59;10467338;28;20040;-61
2023/04/23 06:07:48;;;;;;;6.05;4.32;;;;;;;12.61;63.61;99201.44;10466558;28;20052;-61
2023/04/23 06:12:52;;;;;;;6.20;4.25;;;;;;;12.81;63.45;99203.28;10462498;28;20449;-60
2023/04/23 06:17:56;;;;;;;6.68;3.90;;;;;;;13.07;62.61;99206.44;10467628;28;20679;-60
2023/04/23 06:22:58;;;;;;;4.53;3.63;;;;;;;13.71;61.44;99200.19;10467640;28;20063;-60
2023/04/23 06:28:00;;;;;;;4.75;3.05;;;;;;;14.18;60.42;99194.34;10450330;28;20048;-60
2023/04/23 06:33:11;;;;;;;4.78;3.50;;;;;;;14.39;59.47;99186.41;10456692;28;20086;-60
2023/04/23 06:38:14;;;;;;;5.28;3.55;;;;;;;14.29;59.19;99169.72;10462765;28;20048;-60
2023/04/23 06:43:15;;;;;;;5.13;3.60;;;;;;;14.39;58.39;99173.25;10457041;28;20136;-60
2023/04/23 06:48:56;;;;;;;6.88;3.58;;;;;;;14.76;57.31;99174.31;10456645;28;20265;-60
2023/04/23 06:53:58;;;;;;;6.35;3.53;;;;;;;14.87;56.46;99173.38;10455033;28;20119;-60
2023/04/23 06:59:00;;;;;;;5.57;3.80;;;;;;;14.73;56.59;99184.31;10475839;28;20221;-60
2023/04/23 07:04:03;;;;;;;4.72;3.40;;;;;;;14.62;56.83;99165.97;10453703;28;20138;-60
2023/04/23 07:09:05;;;;;;;6.43;3.40;;;;;;;14.85;55.84;99146.34;10456634;28;20109;-60
2023/04/23 07:14:07;;;;;;;5.05;3.13;;;;;;;14.68;55.71;99149.66;10468706;28;20028;-60
2023/04/23 07:19:09;;;;;;;6.55;3.42;;;;;;;14.59;55.43;99141.59;10475078;28;20072;-60
2023/04/23 07:24:11;;;;;;;5.30;3.45;;;;;;;14.92;55.24;99143.03;10472180;28;20514;-60
2023/04/23 07:29:14;;;;;;;5.82;3.50;;;;;;;15.21;54.42;99150.94;10449602;28;20131;-60
2023/04/23 07:34:16;;;;;;;5.80;3.53;;;;;;;15.31;54.23;99149.13;10444836;28;20080;-60
2023/04/23 07:39:17;;;;;;;9.65;4.20;;;;;;;15.28;54.19;99166.06;10482134;28;20143;-61
2023/04/23 07:44:19;;;;;;;5.10;3.78;;;;;;;15.12;54.11;99154.41;10476669;28;20048;-61
2023/04/23 07:49:21;;;;;;;6.25;3.95;;;;;;;15.37;54.33;99151.19;10511199;28;20056;-61
2023/04/23 07:54:23;;;;;;;6.00;3.40;;;;;;;15.65;53.32;99153.00;10469152;28;20072;-61
2023/04/23 07:59:26;;;;;;;5.05;3.75;;;;;;;15.39;53.40;99160.63;10471124;28;20514;-61
2023/04/23 08:04:28;;;;;;;4.72;3.35;;;;;;;15.38;53.89;99153.72;10465047;28;20511;-61
2023/04/23 08:09:30;;;;;;;5.65;3.33;;;;;;;15.49;53.42;99152.72;10475314;28;20040;-61
2023/04/23 08:14:32;;;;;;;5.70;4.05;;;;;;;15.24;53.32;99148.03;10475071;28;20060;-61
2023/04/23 08:19:36;;;;;;;4.57;3.40;;;;;;;15.05;53.71;99146.22;10485239;27;20690;-61
2023/04/23 08:24:38;;;;;;;5.30;2.95;;;;;;;14.89;53.47;99145.94;10471255;28;20105;-61
2023/04/23 08:29:40;;;;;;;4.60;3.10;;;;;;;14.97;53.42;99140.00;10471023;28;20047;-61
2023/04/23 08:34:42;;;;;;;5.13;3.22;;;;;;;15.30;52.97;99129.88;10490571;28;20033;-61
2023/04/23 08:39:44;;;;;;;6.30;2.80;;;;;;;15.85;52.01;99124.75;10471657;28;20564;-62
2023/04/23 08:44:46;;;;;;;4.40;2.63;;;;;;;16.30;51.38;99115.13;10472928;28;20573;-62
2023/04/23 08:49:53;;;;;;;4.95;2.63;;;;;;;16.52;49.37;99120.03;10469717;28;20053;-62
2023/04/23 08:54:59;;;;;;;5.15;2.75;;;;;;;16.48;49.69;99123.94;10475601;28;20043;-62
2023/04/23 09:00:05;;;;;;;6.57;3.03;;;;;;;16.41;50.07;99133.38;10468941;28;20078;-62
2023/04/23 09:05:07;;;;;;;5.28;2.40;;;;;;;16.61;49.49;99123.59;10470591;28;20060;-61
2023/04/23 09:10:12;;;;;;;4.30;2.33;;;;;;;18.46;46.25;99106.38;10473474;28;20048;-61
2023/04/23 09:15:17;;;;;;;6.72;2.30;;;;;;;19.65;43.11;99090.69;10454746;28;20047;-62
2023/04/23 09:20:20;;;;;;;5.25;2.20;;;;;;;19.45;42.43;99087.59;10438204;28;20046;-62
2023/04/23 09:25:23;;;;;;;7.75;2.13;;;;;;;19.53;42.05;99084.09;10471158;28;20075;-61
2023/04/23 09:30:26;;;;;;;5.93;2.10;;;;;;;19.95;40.71;99078.53;10477271;28;20101;-62
2023/04/23 09:35:28;;;;;;;4.93;2.00;;;;;;;19.72;40.12;99067.81;10471366;28;20070;-61
2023/04/23 09:40:30;;;;;;;5.20;2.28;;;;;;;19.59;40.52;99056.06;10470060;28;20534;-62
2023/04/23 09:45:34;;;;;;;5.53;2.00;;;;;;;19.48;39.93;99045.81;10483676;28;20316;-62
2023/04/23 09:50:39;;;;;;;8.00;2.00;;;;;;;19.00;40.67;99047.50;10452296;28;20308;-63
2023/04/23 09:55:43;;;;;;;4.78;2.15;;;;;;;19.19;41.27;99047.19;10469410;28;20049;-63
2023/04/23 10:00:46;;;;;;;5.38;2.00;;;;;;;19.17;41.37;99048.34;10469952;28;20447;-63
2023/04/23 10:05:48;;;;;;;4.38;2.40;;;;;;;19.95;40.10;99041.38;10453877;28;20044;-63
2023/04/23 10:11:02;;;;;;;4.13;2.20;;;;;;;20.08;39.51;99031.88;10469435;28;20228;-63
2023/04/23 10:16:22;;;;;;;5.15;2.40;;;;;;;20.36;38.62;99026.06;10470489;28;20040;-63
2023/04/23 10:21:33;;;;;;;7.38;2.72;;;;;;;20.54;38.04;99016.00;10471538;28;20400;-63
2023/04/23 10:26:57;;;;;;;4.85;2.50;;;;;;;21.49;36.17;98997.56;10455483;28;20052;-63
2023/04/23 10:32:05;;;;;;;3.65;2.13;;;;;;;21.21;36.39;99014.28;10467146;28;20040;-63
2023/04/23 10:37:07;;;;;;;5.13;2.30;;;;;;;20.70;36.90;99005.28;10470584;28;20181;-63
2023/04/23 10:42:12;;;;;;;3.88;2.53;;;;;;;20.50;37.23;99001.41;10469784;28;20057;-63
2023/04/23 10:47:15;;;;;;;4.78;2.60;;;;;;;20.31;36.67;99002.69;10464206;28;20078;-63
2023/04/23 10:52:17;;;;;;;5.85;2.75;;;;;;;20.23;36.66;98992.94;10467168;28;20045;-63
2023/04/23 10:57:23;;;;;;;4.35;2.40;;;;;;;20.72;35.97;98985.47;10449222;28;20074;-62
2023/04/23 11:02:41;;;;;;;4.28;2.15;;;;;;;20.76;35.46;98985.97;10466141;28;20065;-62
2023/04/23 11:08:02;;;;;;;3.60;2.03;;;;;;;20.82;34.75;98978.09;10469791;28;20253;-62
2023/04/23 11:13:22;;;;;;;5.18;2.03;;;;;;;20.96;35.13;98979.97;10465279;28;20037;-62
2023/04/23 11:18:26;;;;;;;3.45;1.98;;;;;;;20.65;35.78;98975.75;10474331;28;20054;-62
2023/04/23 11:23:31;;;;;;;6.65;2.00;;;;;;;20.31;36.40;98976.13;10460097;28;20135;-62
2023/04/23 11:28:35;;;;;;;3.55;1.80;;;;;;;20.19;36.36;98970.38;10473999;28;20039;-62
2023/04/23 11:33:37;;;;;;;4.63;1.83;;;;;;;19.90;36.75;98958.78;10474840;28;20048;-62
2023/04/23 11:38:40;;;;;;;4.05;2.00;;;;;;;19.97;37.13;98947.31;10479155;28;20510;-63
2023/04/23 11:43:42;;;;;;;4.88;1.90;;;;;;;20.20;37.45;98947.31;10476114;28;20044;-62
2023/04/23 11:48:44;;;;;;;4.35;1.90;;;;;;;19.98;37.31;98942.81;10475254;28;20106;-62
2023/04/23 11:53:47;;;;;;;7.82;1.85;;;;;;;19.93;37.47;98934.59;10459270;28;20396;-63
2023/04/23 11:59:02;;;;;;;3.53;1.80;;;;;;;20.03;37.14;98922.72;10481796;28;20036;-63
2023/04/23 12:04:15;;;;;;;5.55;1.98;;;;;;;20.21;36.96;98909.16;10475554;28;20048;-62
2023/04/23 12:09:19;;;;;;;8.18;1.80;;;;;;;20.99;36.35;98902.50;10473713;28;20037;-63
2023/04/23 12:14:29;;;;;;;3.63;1.80;;;;;;;21.08;35.25;98898.75;10476331;28;20051;-62
2023/04/23 12:19:31;;;;;;;4.78;1.67;;;;;;;20.66;36.24;98898.50;10474973;28;20722;-62
2023/04/23 12:24:50;;;;;;;4.55;1.70;;;;;;;20.76;34.94;98882.31;10475138;28;20043;-63
2023/04/23 12:29:59;;;;;;;4.10;1.60;;;;;;;20.69;34.60;98871.59;10471685;28;20052;-62
2023/04/23 12:35:04;;;;;;;3.65;1.58;;;;;;;20.83;33.99;98862.81;10472737;28;20063;-62
2023/04/23 12:40:07;;;;;;;3.10;1.40;;;;;;;20.66;33.85;98860.50;10477217;28;20048;-62
2023/04/23 12:45:09;;;;;;;2.97;1.45;;;;;;;20.93;33.51;98851.88;10454807;28;20040;-62
2023/04/23 12:50:11;;;;;;;4.68;1.50;;;;;;;21.03;33.53;98844.47;10454169;28;20051;-63
2023/04/23 12:55:13;;;;;;;4.13;1.40;;;;;;;21.03;33.05;98826.69;10452251;28;20044;-62
2023/04/23 13:00:15;;;;;;;3.03;1.30;;;;;;;21.15;33.23;98834.22;10469223;28;20046;-62
2023/04/23 13:05:17;;;;;;;4.53;1.50;;;;;;;21.67;32.28;98826.88;10470265;28;20040;-62
2023/04/23 13:10:19;;;;;;;3.25;1.30;;;;;;;22.02;31.83;98815.34;10468660;28;20048;-62
2023/04/23 13:15:21;;;;;;;3.75;1.40;;;;;;;21.89;30.94;98813.38;10468792;28;20044;-63
2023/04/23 13:20:24;;;;;;;2.72;1.40;;;;;;;21.01;30.93;98807.44;10469638;28;20043;-62
2023/04/23 13:25:26;;;;;;;3.10;1.30;;;;;;;20.92;31.51;98795.28;10470201;28;20374;-62
2023/04/23 13:30:28;;;;;;;2.60;1.20;;;;;;;20.97;31.26;98794.69;10451289;28;20526;-62
2023/04/23 13:35:30;;;;;;;4.30;1.20;;;;;;;21.03;30.61;98788.63;10469837;28;20043;-62
2023/04/23 13:40:32;;;;;;;3.63;1.40;;;;;;;20.95;30.53;98786.91;10450103;28;21113;-62
2023/04/23 13:45:34;;;;;;;2.55;1.23;;;;;;;20.70;30.84;98774.09;10469799;28;20046;-62
2023/04/23 13:50:35;;;;;;;2.85;1.30;;;;;;;20.91;31.24;98767.03;10500090;28;20071;-62
2023/04/23 13:55:38;;;;;;;4.80;1.50;;;;;;;20.78;30.43;98764.22;10468580;28;20341;-62
2023/04/23 14:00:41;;;;;;;3.92;1.40;;;;;;;20.47;31.34;98771.50;10469759;28;20040;-62
2023/04/23 14:05:43;;;;;;;2.45;1.30;;;;;;;20.49;31.19;98760.69;10469341;28;20159;-62
2023/04/23 14:10:45;;;;;;;4.65;1.27;;;;;;;20.41;31.91;98751.00;10471576;28;20040;-62
2023/04/23 14:15:47;;;;;;;3.38;1.30;;;;;;;20.49;32.04;98736.78;10471132;28;20122;-62
2023/04/23 14:20:50;;;;;;;3.00;1.35;;;;;;;20.12;32.24;98711.97;10467090;28;20048;-62
2023/04/23 14:26:03;;;;;;;2.08;1.25;;;;;;;20.18;32.15;98707.75;10468699;28;20067;-62
2023/04/23 14:31:06;;;;;;;3.60;1.20;;;;;;;20.09;32.45;98692.94;10464570;28;20163;-62
2023/04/23 14:36:07;;;;;;;3.63;1.50;;;;;;;20.05;33.02;98679.16;10469755;28;20043;-62
2023/04/23 14:41:09;;;;;;;2.13;1.23;;;;;;;20.03;32.28;98680.38;10467530;28;20028;-62
2023/04/23 14:46:11;;;;;;;5.40;1.40;;;;;;;20.05;33.16;98668.56;10466154;28;20044;-63
2023/04/23 14:51:13;;;;;;;3.58;1.50;;;;;;;19.86;34.14;98661.13;10469477;28;20496;-62
2023/04/23 14:56:15;;;;;;;4.32;1.80;;;;;;;19.17;37.61;98656.91;10479338;28;20514;-62
2023/04/23 15:01:17;;;;;;;3.58;1.80;;;;;;;18.95;39.23;98652.34;10473522;28;20765;-60
2023/04/23 15:06:19;;;;;;;4.03;1.95;;;;;;;18.57;40.24;98650.59;10490971;28;20485;-62
2023/04/23 15:11:22;;;;;;;5.45;1.77;;;;;;;18.25;40.89;98656.88;10475496;28;20059;-62
2023/04/23 15:16:27;;;;;;;4.30;1.67;;;;;;;18.28;40.71;98650.41;10454955;28;20059;-62
2023/04/23 15:21:48;;;;;;;4.35;1.88;;;;;;;18.17;40.48;98648.91;10473734;28;20381;-62
2023/04/23 15:26:52;;;;;;;4.78;1.90;;;;;;;18.12;40.30;98640.66;10483943;28;20036;-63
2023/04/23 15:31:56;;;;;;;3.70;1.65;;;;;;;17.84;39.92;98631.47;10482473;28;20632;-63
2023/04/23 15:36:59;;;;;;;5.90;1.85;;;;;;;17.79;40.12;98631.97;10481690;28;20037;-63
2023/04/23 15:42:02;;;;;;;4.90;1.80;;;;;;;17.73;40.36;98627.34;10478401;28;20526;-63
2023/04/23 15:47:03;;;;;;;4.45;1.70;;;;;;;17.68;40.48;98613.00;10479040;28;20408;-63
2023/04/23 15:52:05;;;;;;;6.03;1.90;;;;;;;17.81;40.65;98613.31;10475373;28;20087;-63
2023/04/23 15:57:08;;;;;;;4.03;1.88;;;;;;;18.06;40.22;98614.88;10474666;28;20043;-63
2023/04/23 16:02:11;;;;;;;4.85;1.75;;;;;;;17.94;40.14;98604.81;10475541;28;20129;-63
2023/04/23 16:07:13;;;;;;;3.85;1.80;;;;;;;17.72;40.55;98603.75;10476777;28;20058;-63
2023/04/23 16:12:15;;;;;;;3.58;1.77;;;;;;;17.59;40.96;98606.91;10473086;28;20381;-62
2023/04/23 16:17:17;;;;;;;4.68;2.00;;;;;;;17.49;43.26;98645.91;10473105;28;20043;-62
2023/04/23 16:22:19;;;;;;;9.50;2.25;;;;;;;16.89;47.91;98695.53;10467767;28;20033;-62
2023/04/23 16:27:22;;;;;;;5.57;2.10;;;;;;;15.49;53.35;98725.84;10473874;28;20135;-63
2023/04/23 16:32:24;;;;;;;3.80;1.50;;;;;;;14.70;54.86;98700.31;10407908;28;20071;-62
2023/04/23 16:37:26;;;;;;;6.07;1.52;;;;;;;14.72;55.92;98687.84;10376360;28;21055;-62
2023/04/23 16:42:28;;;;;;;5.55;1.90;;;;;;;14.72;56.98;98672.03;10366281;28;20049;-62
2023/04/23 16:47:29;;;;;;;3.38;1.63;;;;;;;14.66;57.37;98672.63;10354361;28;20132;-62
2023/04/23 16:52:31;;;;;;;4.57;1.80;;;;;;;14.46;58.39;98680.63;10376325;28;20033;-62
2023/04/23 16:57:35;;;;;;;5.10;1.80;;;;;;;14.37;58.54;98681.47;10379526;28;20053;-62
2023/04/23 17:02:38;;;;;;;4.70;2.00;;;;;;;14.31;58.87;98676.81;10375651;28;20099;-62
2023/04/23 17:07:42;;;;;;;5.80;2.88;;;;;;;14.35;60.07;98680.81;10385404;28;20045;-62
2023/04/23 17:12:45;;;;;;;5.30;2.15;;;;;;;14.34;59.69;98679.16;10369600;28;20040;-62
2023/04/23 17:17:47;;;;;;;3.28;1.98;;;;;;;14.37;59.71;98673.59;10381973;28;20042;-62
2023/04/23 17:22:49;;;;;;;6.68;2.38;;;;;;;14.42;60.39;98673.16;10380459;28;20521;-61
2023/04/23 17:27:51;;;;;;;4.13;1.75;;;;;;;14.51;59.46;98659.97;10365276;28;20489;-62
2023/04/23 17:32:53;;;;;;;7.20;2.83;;;;;;;14.49;60.44;98661.94;10397782;28;20053;-62
2023/04/23 17:37:55;;;;;;;6.68;2.60;;;;;;;14.21;60.75;98664.66;10383119;28;20100;-62
2023/04/23 17:42:57;;;;;;;5.18;2.92;;;;;;;14.07;61.87;98660.72;10380219;28;20041;-61
2023/04/23 17:48:00;;;;;;;11.32;4.95;;;;;;;14.12;61.20;98636.63;10386054;28;20076;-62
2023/04/23 17:53:04;;;;;;;5.85;2.42;;;;;;;13.67;61.96;98624.22;10381927;28;20128;-62
2023/04/23 17:58:08;;;;;;;4.72;1.77;;;;;;;13.57;62.15;98617.31;10373033;28;20049;-62
2023/04/23 18:03:15;;;;;;;5.97;1.90;;;;;;;13.37;62.33;98613.84;10373890;28;20473;-62
2023/04/23 18:08:19;;;;;;;5.63;1.90;;;;;;;13.29;62.56;98597.16;10384377;28;20072;-62
2023/04/23 18:13:21;;;;;;;5.32;1.90;;;;;;;13.33;63.19;98601.97;10379678;28;20588;-62
2023/04/23 18:18:23;;;;;;;4.68;1.75;;;;;;;13.23;63.30;98600.34;10383015;28;20425;-62
2023/04/23 18:23:25;;;;;;;2.50;1.75;;;;;;;13.32;63.10;98604.75;10375542;28;20585;-62
2023/04/23 18:28:27;;;;;;;3.35;1.50;;;;;;;13.27;62.66;98597.28;10393822;28;20053;-62
2023/04/23 18:33:34;;;;;;;3.25;1.40;;;;;;;13.21;62.91;98600.47;10389859;28;20055;-62
2023/04/23 18:38:46;;;;;;;2.72;1.50;;;;;;;13.17;62.34;98621.91;10388042;28;20037;-62
2023/04/23 18:43:48;;;;;;;2.67;1.42;;;;;;;13.08;62.02;98610.44;10387649;28;20413;-62
2023/04/23 18:49:08;;;;;;;7.35;4.68;;;;;;;12.94;64.02;98629.25;10388677;28;20068;-62
2023/04/23 18:54:13;;;;;;;10.13;3.50;;;;;;;12.67;63.95;98621.19;10391364;28;20056;-62
2023/04/23 18:59:15;;;;;;;6.75;3.35;;;;;;;12.75;64.42;98623.97;10392508;28;20037;-60
2023/04/23 19:04:17;;;;;;;5.88;3.90;;;;;;;12.75;63.90;98614.31;10389484;28;20041;-61
2023/04/23 19:09:19;;;;;;;4.93;1.98;;;;;;;12.58;64.00;98619.38;10369532;28;20508;-61
2023/04/23 19:14:21;;;;;;;3.15;1.73;;;;;;;12.56;64.56;98630.00;10387950;28;20051;-61
2023/04/23 19:19:23;;;;;;;3.45;2.10;;;;;;;12.61;64.02;98635.69;10392494;28;20595;-62
2023/04/23 19:24:25;;;;;;;4.32;1.95;;;;;;;12.58;64.01;98641.19;10389921;28;20049;-61
2023/04/23 19:29:27;;;;;;;2.45;1.60;;;;;;;12.58;64.28;98638.56;10390186;28;20053;-61
2023/04/23 19:34:29;;;;;;;5.70;2.00;;;;;;;12.54;64.41;98649.47;10374922;28;20045;-60
2023/04/23 19:39:31;;;;;;;6.22;2.10;;;;;;;12.43;64.85;98650.44;10392126;28;20046;-61
2023/04/23 19:44:33;;;;;;;5.68;1.90;;;;;;;12.30;64.83;98647.22;10391503;28;20944;-60
2023/04/23 19:49:34;;;;;;;4.15;1.83;;;;;;;12.35;64.46;98662.53;10389863;28;20064;-60
2023/04/23 19:54:36;;;;;;;4.22;1.80;;;;;;;12.32;63.76;98661.00;10389775;28;20030;-60
2023/04/23 19:59:38;;;;;;;3.42;1.50;;;;;;;12.29;63.72;98679.66;10391221;28;20048;-61
2023/04/23 20:04:40;;;;;;;3.65;1.50;;;;;;;12.20;63.73;98679.56;10390107;28;20440;-60
2023/04/23 20:09:42;;;;;;;4.03;1.60;;;;;;;12.04;64.34;98682.66;10387310;28;20053;-60
2023/04/23 20:14:46;;;;;;;2.97;1.52;;;;;;;11.88;64.55;98687.56;10393387;28;20064;-60
2023/04/23 20:19:49;;;;;;;3.80;1.40;;;;;;;11.83;64.42;98687.09;10374697;28;20163;-60
2023/04/23 20:24:51;;;;;;;4.07;1.60;;;;;;;11.85;64.08;98680.78;10391466;28;20045;-60
2023/04/23 20:29:53;;;;;;;3.95;1.83;;;;;;;12.01;63.87;98678.50;10394409;28;20509;-60
2023/04/23 20:34:56;;;;;;;3.47;1.63;;;;;;;12.05;63.82;98677.28;10372289;28;20041;-60
2023/04/23 20:39:59;;;;;;;2.45;1.30;;;;;;;12.03;63.05;98666.09;10388396;28;20053;-60
2023/04/23 20:45:00;;;;;;;6.43;1.85;;;;;;;11.84;63.73;98662.56;10411006;28;20049;-60
2023/04/23 20:50:02;;;;;;;2.40;1.60;;;;;;;11.85;63.46;98666.84;10393542;28;20152;-60
2023/04/23 20:55:04;;;;;;;2.83;1.70;;;;;;;11.99;63.94;98663.88;10394115;28;20048;-60
2023/04/23 21:00:10;;;;;;;3.45;1.48;;;;;;;11.77;63.68;98656.19;10396857;28;20956;-60
2023/04/23 21:05:12;;;;;;;3.50;1.60;;;;;;;11.51;64.83;98652.31;10391858;28;20034;-60
2023/04/23 21:10:14;;;;;;;3.55;1.90;;;;;;;11.53;64.71;98645.16;10391181;28;20070;-61
2023/04/23 21:15:16;;;;;;;4.05;2.00;;;;;;;11.41;64.94;98651.41;10391467;28;20044;-61
2023/04/23 21:20:18;;;;;;;6.28;2.95;;;;;;;11.43;65.52;98652.97;10392969;28;20044;-61
2023/04/23 21:25:20;;;;;;;6.13;2.20;;;;;;;11.43;65.66;98647.72;10370070;28;20100;-60
2023/04/23 21:30:36;;;;;;;5.65;2.40;;;;;;;11.43;65.90;98657.34;10387608;28;20227;-60
2023/04/23 21:35:38;;;;;;;4.80;2.40;;;;;;;11.41;65.59;98651.41;10427432;28;20257;-60
2023/04/23 21:40:40;;;;;;;7.05;2.15;;;;;;;11.26;65.51;98656.97;10393802;28;20045;-60
2023/04/23 21:45:42;;;;;;;3.88;2.30;;;;;;;11.11;65.69;98671.31;10426928;28;20035;-60
2023/04/23 21:50:44;;;;;;;4.10;2.10;;;;;;;11.02;66.10;98665.97;10410713;28;20148;-59
2023/04/23 21:55:46;;;;;;;4.25;2.60;;;;;;;10.87;65.88;98659.34;10391836;28;20034;-60
2023/04/23 22:00:47;;;;;;;3.58;1.90;;;;;;;10.74;66.25;98666.53;10384241;28;20129;-60
2023/04/23 22:05:51;;;;;;;3.38;2.38;;;;;;;10.73;66.26;98670.09;10391170;28;20037;-60
2023/04/23 22:10:52;;;;;;;3.85;1.67;;;;;;;10.74;65.65;98664.75;10388618;28;20048;-60
2023/04/23 22:15:56;;;;;;;4.38;1.70;;;;;;;10.69;66.01;98673.91;10389237;28;20072;-60
2023/04/23 22:20:57;;;;;;;3.47;2.00;;;;;;;10.66;66.39;98669.78;10387385;28;20136;-60
2023/04/23 22:25:59;;;;;;;3.55;1.77;;;;;;;10.59;66.27;98683.44;10371954;28;20383;-60
2023/04/23 22:31:01;;;;;;;3.40;1.98;;;;;;;10.70;66.37;98672.97;10374055;28;20413;-60
2023/04/23 22:36:04;;;;;;;4.35;2.17;;;;;;;10.71;66.00;98674.63;10388305;28;20046;-60
2023/04/23 22:41:06;;;;;;;3.45;2.17;;;;;;;10.69;66.14;98668.69;10389799;28;20087;-60
2023/04/23 22:46:08;;;;;;;3.97;2.10;;;;;;;10.81;66.26;98673.75;10390696;28;20141;-60
2023/04/23 22:51:10;;;;;;;7.22;1.90;;;;;;;10.83;65.81;98679.69;10389244;28;20567;-60
2023/04/23 22:56:12;;;;;;;5.90;2.28;;;;;;;10.85;65.73;98684.81;10388033;28;20129;-60
2023/04/23 23:01:15;;;;;;;3.78;2.00;;;;;;;10.81;65.85;98673.75;10388702;28;20324;-60
2023/04/23 23:06:17;;;;;;;2.83;1.50;;;;;;;10.83;65.45;98668.41;10389332;28;20156;-60
2023/04/23 23:11:19;;;;;;;5.68;2.22;;;;;;;10.88;65.84;98667.09;10384778;28;20124;-60
2023/04/23 23:16:22;;;;;;;4.40;1.92;;;;;;;10.95;65.73;98660.41;10376173;28;20045;-60
2023/04/23 23:21:24;;;;;;;3.45;1.70;;;;;;;10.97;65.33;98652.44;10394552;28;20048;-60
2023/04/23 23:26:26;;;;;;;5.88;2.13;;;;;;;11.00;65.49;98658.25;10376484;28;20489;-60
2023/04/23 23:31:28;;;;;;;5.78;3.40;;;;;;;10.92;65.11;98642.34;10392307;28;20049;-60